Aviation Digital Data Service (ADDS)

Output produced by METARs form (1420 UTC 22 April 2021)
found at http://aviationweather.gov/metar/data/
 
METAR text: KGGG 221353Z 13005KT 10SM CLR 12/04 A3022 RMK AO2 SLP234 T01170044
Conditions at: KGGG (LONGVIEW , TX, US) observed 1353 UTC 22 April 2021
Temperature: 11.7°C (53°F)
Dewpoint: 4.4°C (40°F) [RH = 61%]
Pressure (altimeter): 30.22 inches Hg (1023.5 mb)
[Sea-level pressure: 1023.4 mb]
Winds: from the SE (130 degrees) at 6 MPH (5 knots; 2.6 m/s)
Visibility: 10 or more miles (16+ km)
Ceiling: at least 12,000 feet AGL
Clouds: sky clear below 12,000 feet AGL
Weather: no significant weather observed at this time

METAR text: KGGG 221253Z 00000KT 10SM CLR 07/05 A3021 RMK AO2 SLP233 T00720050
Conditions at: KGGG (LONGVIEW , TX, US) observed 1253 UTC 22 April 2021
Temperature: 7.2°C (45°F)
Dewpoint: 5.0°C (41°F) [RH = 86%]
Pressure (altimeter): 30.21 inches Hg (1023.1 mb)
[Sea-level pressure: 1023.3 mb]
Winds: calm
Visibility: 10 or more miles (16+ km)
Ceiling: at least 12,000 feet AGL
Clouds: sky clear below 12,000 feet AGL
Weather: no significant weather observed at this time

Forecast for: KGGG (LONGVIEW , TX, US)
Text: KGGG 221140Z 2212/2312 00000KT P6SM SKC
Forecast period: 1200 to 1500 UTC 22 April 2021
Forecast type: FROM: standard forecast or significant change
Winds: calm
Visibility: 6 or more miles (10+ km)
Clouds: clear skies
Weather: no significant weather forecast for this period
Text: FM221500 11007KT P6SM SCT050 BKN100
Forecast period: 1500 to 2100 UTC 22 April 2021
Forecast type: FROM: standard forecast or significant change
Winds: from the ESE (110 degrees) at 8 MPH (7 knots; 3.6 m/s)
Visibility: 6 or more miles (10+ km)
Ceiling: 10000 feet AGL
Clouds: scattered clouds at 5000 feet AGL
broken clouds at 10000 feet AGL
Weather: no significant weather forecast for this period
Text: FM222100 13008KT P6SM BKN060 OVC100
Forecast period: 2100 UTC 22 April 2021 to 0600 UTC 23 April 2021
Forecast type: FROM: standard forecast or significant change
Winds: from the SE (130 degrees) at 9 MPH (8 knots; 4.1 m/s)
Visibility: 6 or more miles (10+ km)
Ceiling: 6000 feet AGL
Clouds: broken clouds at 6000 feet AGL
overcast cloud deck at 10000 feet AGL
Weather: no significant weather forecast for this period
Text: FM230600 15008KT P6SM OVC050
Forecast period: 0600 to 1200 UTC 23 April 2021
Forecast type: FROM: standard forecast or significant change
Winds: from the SSE (150 degrees) at 9 MPH (8 knots; 4.1 m/s)
Visibility: 6 or more miles (10+ km)
Ceiling: 5000 feet AGL
Clouds: overcast cloud deck at 5000 feet AGL
Weather: no significant weather forecast for this period